Time;durP1;ratioP1;P1;durP2;ratioP2;P2;SDS_P1;SDS_P2;PMS_P1;PMS_P2;Temp;Humidity;BMP_temperature;BMP_pressure;BME280_temperature;BME280_humidity;BME280_pressure;Samples;Min_cycle;Max_cycle;Signal;HPM_P1;HPM_P2
2020/12/17 00:00:42;;;;;;;1999.90;999.90;;;9.40;99.90;;;;;;4979284;28;20576;-81
2020/12/17 00:03:14;;;;;;;1999.90;999.90;;;9.40;99.90;;;;;;4979545;28;20903;-81
2020/12/17 00:05:42;;;;;;;1999.90;999.90;;;9.40;99.90;;;;;;4979852;28;20199;-81
2020/12/17 00:08:18;;;;;;;1999.90;999.90;;;9.40;99.90;;;;;;4979181;28;20190;-81
2020/12/17 00:10:46;;;;;;;1999.90;999.90;;;9.40;99.90;;;;;;4979003;28;20151;-81
2020/12/17 00:13:21;;;;;;;1999.90;999.90;;;9.40;99.90;;;;;;4961382;28;20235;-81
2020/12/17 00:15:52;;;;;;;1999.90;999.90;;;9.40;99.90;;;;;;4978456;28;20183;-81
2020/12/17 00:18:21;;;;;;;1999.90;999.90;;;9.50;99.90;;;;;;4979120;28;20691;-81
2020/12/17 00:20:52;;;;;;;1999.90;999.90;;;9.50;99.90;;;;;;4978984;28;20167;-81
2020/12/17 00:23:23;;;;;;;1999.90;999.90;;;9.50;99.90;;;;;;4978980;28;20144;-81
2020/12/17 00:25:49;;;;;;;1999.90;999.90;;;9.40;99.90;;;;;;4961251;28;20244;-81
2020/12/17 00:28:28;;;;;;;1999.90;999.90;;;9.40;99.90;;;;;;4979366;28;20607;-81
2020/12/17 00:30:57;;;;;;;1999.90;999.90;;;9.40;99.90;;;;;;4978480;28;20752;-81
2020/12/17 00:33:37;;;;;;;1999.90;999.90;;;9.30;99.90;;;;;;4978288;28;20176;-81
2020/12/17 00:36:13;;;;;;;1999.90;999.90;;;9.40;99.90;;;;;;4977976;28;20265;-81
2020/12/17 00:38:47;;;;;;;1999.90;999.90;;;9.30;99.90;;;;;;4978961;28;20155;-81
2020/12/17 00:41:29;;;;;;;;;;;;;;;;;;;;;
2020/12/17 00:43:57;;;;;;;1999.90;999.90;;;9.30;99.90;;;;;;4965100;28;20242;-81
2020/12/17 00:46:23;;;;;;;1999.90;999.90;;;9.30;99.90;;;;;;4978371;28;20200;-81
2020/12/17 00:48:51;;;;;;;1999.90;999.90;;;9.30;99.90;;;;;;4961064;28;20171;-80
2020/12/17 00:51:18;;;;;;;1999.90;999.90;;;9.30;99.90;;;;;;4971240;28;20248;-81
2020/12/17 00:53:52;;;;;;;1999.90;999.90;;;9.30;99.90;;;;;;4978859;28;20285;-81
2020/12/17 00:56:21;;;;;;;1999.90;999.90;;;9.40;99.90;;;;;;4970864;28;20167;-81
2020/12/17 00:58:50;;;;;;;1999.90;999.90;;;9.40;99.90;;;;;;4978250;28;20168;-81
2020/12/17 01:01:25;;;;;;;1999.90;999.90;;;9.40;99.90;;;;;;4978486;28;20223;-81
2020/12/17 01:04:14;;;;;;;1999.90;999.90;;;9.50;99.90;;;;;;4979022;28;20755;-81
2020/12/17 01:06:44;;;;;;;1999.90;999.90;;;9.50;99.90;;;;;;4978612;28;20546;-81
2020/12/17 01:09:11;;;;;;;1999.90;999.90;;;9.50;99.90;;;;;;4978768;28;20178;-81
2020/12/17 01:11:53;;;;;;;1999.90;999.90;;;9.60;99.90;;;;;;4977990;28;20655;-81
2020/12/17 01:14:21;;;;;;;1999.90;999.90;;;9.60;99.90;;;;;;4973431;28;20194;-81
2020/12/17 01:16:53;;;;;;;1999.90;999.90;;;9.60;99.90;;;;;;4981873;28;20174;-81
2020/12/17 01:19:23;;;;;;;1999.90;999.90;;;9.60;99.90;;;;;;4974727;28;20642;-81
2020/12/17 01:21:57;;;;;;;1999.90;999.90;;;9.60;99.90;;;;;;4982192;28;20165;-80
2020/12/17 01:24:30;;;;;;;1999.90;999.90;;;9.60;99.90;;;;;;4964464;28;20230;-81
2020/12/17 01:27:06;;;;;;;1999.90;999.90;;;9.60;99.90;;;;;;4964757;28;20179;-81
2020/12/17 01:30:04;;;;;;;1999.90;999.90;;;9.60;99.90;;;;;;4982187;28;20155;-81
2020/12/17 01:32:33;;;;;;;1999.90;999.90;;;9.50;99.90;;;;;;4956478;28;20644;-81
2020/12/17 01:35:01;;;;;;;1999.90;999.90;;;9.50;99.90;;;;;;4981523;28;20570;-81
2020/12/17 01:37:33;;;;;;;1999.90;999.90;;;9.50;99.90;;;;;;4981660;28;20167;-81
2020/12/17 01:40:06;;;;;;;1999.90;999.90;;;9.50;99.90;;;;;;4979525;28;20223;-81
2020/12/17 01:42:38;;;;;;;1999.90;999.90;;;9.50;99.90;;;;;;4981872;28;20174;-81
2020/12/17 01:45:09;;;;;;;1999.90;999.90;;;9.50;99.90;;;;;;4981573;28;20178;-81
2020/12/17 01:47:54;;;;;;;1999.90;999.90;;;9.50;99.90;;;;;;4981886;28;20172;-81
2020/12/17 01:50:20;;;;;;;1999.90;999.90;;;9.50;99.90;;;;;;4981681;28;20170;-81
2020/12/17 01:53:14;;;;;;;1999.90;999.90;;;9.40;99.90;;;;;;4981139;28;20559;-81
2020/12/17 01:55:46;;;;;;;1999.90;999.90;;;9.40;99.90;;;;;;4963738;28;20277;-81
2020/12/17 01:58:22;;;;;;;1999.90;999.90;;;9.30;99.90;;;;;;4963975;28;20187;-81
2020/12/17 02:00:59;;;;;;;1999.90;999.90;;;9.30;99.90;;;;;;4964209;28;20167;-81
2020/12/17 02:03:48;;;;;;;1999.90;999.90;;;9.40;99.90;;;;;;4981660;28;20147;-81
2020/12/17 02:06:23;;;;;;;1999.90;999.90;;;9.40;99.90;;;;;;4981070;28;20679;-81
2020/12/17 02:09:35;;;;;;;1999.90;999.90;;;9.30;99.90;;;;;;4981223;28;20159;-81
2020/12/17 02:12:12;;;;;;;1999.90;999.90;;;9.30;99.90;;;;;;4981538;28;20206;-82
2020/12/17 02:14:45;;;;;;;1999.90;999.90;;;9.30;99.90;;;;;;4964025;28;20195;-81
2020/12/17 02:17:20;;;;;;;1999.90;999.90;;;9.30;99.90;;;;;;4980505;28;20686;-81
2020/12/17 02:19:57;;;;;;;1999.90;999.90;;;9.30;99.90;;;;;;4980566;28;20175;-81
2020/12/17 02:22:43;;;;;;;1999.90;999.90;;;9.30;99.90;;;;;;4981100;28;20155;-81
2020/12/17 02:25:22;;;;;;;1999.90;999.90;;;9.30;99.90;;;;;;4980735;28;20226;-81
2020/12/17 02:27:54;;;;;;;1999.90;999.90;;;9.30;99.90;;;;;;4980574;28;20239;-81
2020/12/17 02:30:38;;;;;;;1999.90;999.90;;;9.30;99.90;;;;;;4980742;28;20175;-82
2020/12/17 02:33:11;;;;;;;1999.90;999.90;;;9.30;99.90;;;;;;4979150;28;20186;-81
2020/12/17 02:35:46;;;;;;;1999.90;999.90;;;9.30;99.90;;;;;;4980757;28;20218;-81
2020/12/17 02:38:15;;;;;;;1999.90;999.90;;;9.40;99.90;;;;;;4980169;28;20626;-81
2020/12/17 02:40:46;;;;;;;1999.90;999.90;;;9.40;99.90;;;;;;4980202;28;20175;-81
2020/12/17 02:43:22;;;;;;;1999.90;999.90;;;9.40;99.90;;;;;;4980829;28;20246;-81
2020/12/17 02:46:21;;;;;;;1999.90;999.90;;;9.40;99.90;;;;;;4980069;28;20195;-82
2020/12/17 02:48:55;;;;;;;1999.90;999.90;;;9.30;99.90;;;;;;4953783;28;20673;-81
2020/12/17 02:51:33;;;;;;;1999.90;999.90;;;9.30;99.90;;;;;;4963089;28;20174;-81
2020/12/17 02:53:59;;;;;;;1999.90;999.90;;;9.30;99.90;;;;;;4980090;28;20202;-81
2020/12/17 02:56:25;;;;;;;1999.90;999.90;;;9.30;99.90;;;;;;4980183;28;20164;-81
2020/12/17 02:59:20;;;;;;;1999.90;999.90;;;9.30;99.90;;;;;;4978725;28;20643;-81
2020/12/17 03:01:58;;;;;;;1999.90;999.90;;;9.30;99.90;;;;;;4979803;28;20534;-81
2020/12/17 03:04:49;;;;;;;1999.90;999.90;;;9.30;99.90;;;;;;4961601;28;20674;-81
2020/12/17 03:07:23;;;;;;;1999.90;999.90;;;9.30;99.90;;;;;;4979996;28;20220;-81
2020/12/17 03:10:23;;;;;;;1999.90;999.90;;;9.30;99.90;;;;;;4961816;28;20591;-81
2020/12/17 03:13:07;;;;;;;;;;;;;;;;;;;;;
2020/12/17 03:15:58;;;;;;;1999.90;999.90;;;9.20;99.90;;;;;;4980422;28;20183;-80
2020/12/17 03:18:35;;;;;;;1999.90;999.90;;;9.20;99.90;;;;;;4979972;28;20144;-81
2020/12/17 03:21:06;;;;;;;1999.90;999.90;;;9.10;99.90;;;;;;4960346;28;20189;-79
2020/12/17 03:24:09;;;;;;;1999.90;999.90;;;9.20;99.90;;;;;;4960661;28;20204;-81
2020/12/17 03:27:40;;;;;;;1999.90;999.90;;;9.10;99.90;;;;;;4979309;28;20163;-81
2020/12/17 03:30:16;;;;;;;1999.90;999.90;;;9.20;99.90;;;;;;4978374;28;20178;-81
2020/12/17 03:32:50;;;;;;;1999.90;999.90;;;9.20;99.90;;;;;;4979419;28;20161;-81
2020/12/17 03:35:15;;;;;;;1999.90;999.90;;;9.10;99.90;;;;;;5045793;23;20322;-84
2020/12/17 03:37:41;;;;;;;1999.90;999.90;;;9.20;99.90;;;;;;4977865;28;20194;-84
2020/12/17 03:40:07;;;;;;;1999.90;999.90;;;9.20;99.90;;;;;;4978380;28;20539;-84
2020/12/17 03:42:32;;;;;;;1999.90;999.90;;;9.20;99.90;;;;;;4961006;28;20191;-84
2020/12/17 03:44:58;;;;;;;1999.90;999.90;;;9.20;99.90;;;;;;4977057;28;20551;-85
2020/12/17 03:47:23;;;;;;;1999.90;999.90;;;9.20;99.90;;;;;;4976849;28;20627;-84
2020/12/17 03:49:49;;;;;;;1999.90;999.90;;;9.20;99.90;;;;;;4978330;28;20171;-84
2020/12/17 03:52:15;;;;;;;1999.90;999.90;;;9.20;99.90;;;;;;4978134;28;20175;-84
2020/12/17 03:54:41;;;;;;;1999.90;999.90;;;9.20;99.90;;;;;;4978552;28;20207;-84
2020/12/17 03:57:09;;;;;;;1999.90;999.90;;;9.20;99.90;;;;;;4977937;28;20171;-84
2020/12/17 03:59:35;;;;;;;1999.90;999.90;;;9.20;99.90;;;;;;4978013;28;20254;-84
2020/12/17 04:02:00;;;;;;;1999.90;999.90;;;9.20;99.90;;;;;;4961292;28;20600;-84
2020/12/17 04:04:26;;;;;;;1999.90;999.90;;;9.20;99.90;;;;;;4977991;28;20175;-84
2020/12/17 04:06:52;;;;;;;1999.90;999.90;;;9.20;99.90;;;;;;4978142;28;20182;-84
2020/12/17 04:09:21;;;;;;;1999.90;999.90;;;9.20;99.90;;;;;;4976147;28;20217;-84
2020/12/17 04:11:46;;;;;;;1999.90;999.90;;;9.20;99.90;;;;;;4960374;28;20175;-84
2020/12/17 04:14:12;;;;;;;1999.90;999.90;;;9.20;99.90;;;;;;4977542;28;20187;-84
2020/12/17 04:16:37;;;;;;;1999.90;999.90;;;9.20;99.90;;;;;;4976900;28;20171;-84
2020/12/17 04:19:03;;;;;;;1999.90;999.90;;;9.20;99.90;;;;;;4977699;28;20164;-84
2020/12/17 04:21:29;;;;;;;1999.90;999.90;;;9.20;99.90;;;;;;4977591;28;20562;-84
2020/12/17 04:23:54;;;;;;;1999.90;999.90;;;9.20;99.90;;;;;;4976563;28;20182;-84
2020/12/17 04:26:20;;;;;;;1999.90;999.90;;;9.20;99.90;;;;;;4977455;28;20534;-85
2020/12/17 04:28:46;;;;;;;1999.90;999.90;;;9.20;99.90;;;;;;4960779;28;20669;-84
2020/12/17 04:31:11;;;;;;;1999.90;999.90;;;9.20;99.90;;;;;;4978209;28;20706;-84
2020/12/17 04:33:37;;;;;;;1999.90;999.90;;;9.10;99.90;;;;;;4977656;28;20167;-85
2020/12/17 04:36:04;;;;;;;1999.90;999.90;;;9.20;99.90;;;;;;4976890;28;20175;-84
2020/12/17 04:38:29;;;;;;;1999.90;999.90;;;9.20;99.90;;;;;;4978722;28;20163;-84
2020/12/17 04:40:55;;;;;;;1999.90;999.90;;;9.20;99.90;;;;;;4961036;28;20586;-84
2020/12/17 04:43:21;;;;;;;1999.90;999.90;;;9.20;99.90;;;;;;4978157;28;20199;-84
2020/12/17 04:45:47;;;;;;;1999.90;999.90;;;9.20;99.90;;;;;;4978201;28;20175;-85
2020/12/17 04:48:21;;;;;;;1999.90;999.90;;;9.30;99.90;;;;;;4978818;28;20171;-85
2020/12/17 04:50:47;;;;;;;1999.90;999.90;;;9.20;99.90;;;;;;4982800;28;20167;-85
2020/12/17 04:53:15;;;;;;;1999.90;999.90;;;9.30;99.90;;;;;;4982439;28;20253;-84
2020/12/17 04:55:42;;;;;;;1999.90;999.90;;;9.20;99.90;;;;;;4965105;28;20592;-84
2020/12/17 04:58:09;;;;;;;1999.90;999.90;;;9.20;99.90;;;;;;4982273;28;20536;-84
2020/12/17 05:00:40;;;;;;;1999.90;999.90;;;9.30;99.90;;;;;;4981192;28;20263;-84
2020/12/17 05:03:12;;;;;;;1999.90;999.90;;;9.20;99.90;;;;;;4981963;28;20147;-84
2020/12/17 05:05:38;;;;;;;1999.90;999.90;;;9.30;99.90;;;;;;4965575;28;20206;-84
2020/12/17 05:08:04;;;;;;;1999.90;999.90;;;9.30;99.90;;;;;;4964743;28;20184;-85
2020/12/17 05:10:30;;;;;;;1999.90;999.90;;;9.30;99.90;;;;;;4980917;28;20167;-84
2020/12/17 05:12:56;;;;;;;1999.90;999.90;;;9.40;99.90;;;;;;4981164;28;20227;-84
2020/12/17 05:15:23;;;;;;;1999.90;999.90;;;9.40;99.90;;;;;;4964247;28;20285;-84
2020/12/17 05:17:48;;;;;;;1999.90;999.90;;;9.30;99.90;;;;;;4982083;28;20191;-84
2020/12/17 05:20:15;;;;;;;1999.90;999.90;;;9.40;99.90;;;;;;4982117;28;20678;-84
2020/12/17 05:22:44;;;;;;;1999.90;999.90;;;9.40;99.90;;;;;;4964556;28;20539;-84
2020/12/17 05:25:09;;;;;;;1999.90;999.90;;;9.40;99.90;;;;;;4964307;28;20183;-84
2020/12/17 05:27:35;;;;;;;1999.90;999.90;;;9.40;99.90;;;;;;4964340;28;20694;-84
2020/12/17 05:30:01;;;;;;;1999.90;999.90;;;9.50;99.90;;;;;;4982229;28;20253;-84
2020/12/17 05:32:27;;;;;;;1999.90;999.90;;;9.50;99.90;;;;;;4982313;28;20187;-84
2020/12/17 05:34:53;;;;;;;1999.90;999.90;;;9.50;99.90;;;;;;4982141;28;20210;-84
2020/12/17 05:37:22;;;;;;;1999.90;999.90;;;9.50;99.90;;;;;;4980601;28;20575;-84
2020/12/17 05:39:50;;;;;;;1999.90;999.90;;;9.50;99.90;;;;;;4964151;28;20167;-84
2020/12/17 05:42:16;;;;;;;1999.90;999.90;;;9.50;99.90;;;;;;4981948;28;20523;-84
2020/12/17 05:44:42;;;;;;;1999.90;999.90;;;9.50;99.90;;;;;;4980819;28;20257;-84
2020/12/17 05:47:13;;;;;;;1999.90;999.90;;;9.50;99.90;;;;;;4980331;28;20231;-84
2020/12/17 05:49:38;;;;;;;1999.90;999.90;;;9.50;99.90;;;;;;4982236;28;20520;-84
2020/12/17 05:52:14;;;;;;;1999.90;999.90;;;9.50;99.90;;;;;;4964667;28;20289;-84
2020/12/17 05:54:42;;;;;;;1999.90;999.90;;;9.60;99.90;;;;;;4982086;28;20191;-84
2020/12/17 05:57:11;;;;;;;1999.90;999.90;;;9.60;99.90;;;;;;4966065;28;20159;-84
2020/12/17 05:59:37;;;;;;;1999.90;999.90;;;9.60;99.90;;;;;;4981687;28;20164;-84
2020/12/17 06:02:22;;;;;;;1999.90;999.90;;;9.60;99.90;;;;;;4964934;28;20167;-84
2020/12/17 06:05:00;;;;;;;1999.90;999.90;;;9.60;99.90;;;;;;4964585;28;20509;-84
2020/12/17 06:07:31;;;;;;;1999.90;999.90;;;9.60;99.90;;;;;;4982388;28;20151;-84
2020/12/17 06:10:06;;;;;;;1999.90;999.90;;;9.50;99.90;;;;;;4964767;28;20163;-84
2020/12/17 06:12:34;;;;;;;1999.90;999.90;;;9.50;99.90;;;;;;4982495;28;20147;-85
2020/12/17 06:15:05;;;;;;;1999.90;999.90;;;9.60;99.90;;;;;;4981456;28;20550;-84
2020/12/17 06:17:38;;;;;;;1999.90;999.90;;;9.60;99.90;;;;;;4964493;28;20191;-84
2020/12/17 06:20:05;;;;;;;1999.90;999.90;;;9.60;99.90;;;;;;4963672;28;20167;-84
2020/12/17 06:22:32;;;;;;;1999.90;999.90;;;9.70;99.90;;;;;;4964265;28;20214;-85
2020/12/17 06:24:59;;;;;;;1999.90;999.90;;;9.70;99.90;;;;;;4981747;28;20163;-85
2020/12/17 06:27:34;;;;;;;1999.90;999.90;;;9.70;99.90;;;;;;4980940;28;20421;-85
2020/12/17 06:30:08;;;;;;;1999.90;999.90;;;9.80;99.90;;;;;;4982244;28;20178;-85
2020/12/17 06:32:35;;;;;;;1999.90;999.90;;;9.70;99.90;;;;;;4982452;28;20160;-85
2020/12/17 06:35:05;;;;;;;1999.90;999.90;;;9.70;99.90;;;;;;4964943;28;20575;-85
2020/12/17 06:37:34;;;;;;;1999.90;999.90;;;9.70;99.90;;;;;;4983142;28;20171;-85
2020/12/17 06:40:00;;;;;;;1999.90;999.90;;;9.80;99.90;;;;;;4963352;28;20179;-84
2020/12/17 06:42:36;;;;;;;1999.90;999.90;;;9.80;99.90;;;;;;4981445;28;20166;-84
2020/12/17 06:45:25;;;;;;;1999.90;999.90;;;9.80;99.90;;;;;;4966169;28;20194;-85
2020/12/17 06:47:51;;;;;;;1999.90;999.90;;;9.80;99.90;;;;;;4983692;28;20174;-85
2020/12/17 06:50:28;;;;;;;1999.90;999.90;;;9.80;99.90;;;;;;4981541;28;20202;-85
2020/12/17 06:53:09;;;;;;;1999.90;999.90;;;9.80;99.90;;;;;;4964822;28;20163;-84
2020/12/17 06:55:46;;;;;;;1999.90;999.90;;;9.70;99.90;;;;;;4982188;28;20221;-85
2020/12/17 06:58:25;;;;;;;1999.90;999.90;;;9.70;99.90;;;;;;4966132;28;20159;-84
2020/12/17 07:00:55;;;;;;;1999.90;999.90;;;9.70;99.90;;;;;;4982720;28;20190;-84
2020/12/17 07:03:39;;;;;;;1999.90;999.90;;;9.70;99.90;;;;;;4979900;28;20642;-84
2020/12/17 07:06:20;;;;;;;1999.90;999.90;;;9.70;99.90;;;;;;4962422;28;20651;-84
2020/12/17 07:08:50;;;;;;;1999.90;999.90;;;9.70;99.90;;;;;;4962197;28;20171;-84
2020/12/17 07:11:43;;;;;;;1999.90;999.90;;;9.70;99.90;;;;;;4960798;28;20155;-83
2020/12/17 07:14:34;;;;;;;1999.90;999.90;;;9.60;99.90;;;;;;4978216;28;20183;-83
2020/12/17 07:17:08;;;;;;;1999.90;999.90;;;9.60;99.90;;;;;;4961629;28;20257;-83
2020/12/17 07:19:48;;;;;;;1999.90;999.90;;;9.60;99.90;;;;;;4961257;28;20186;-83
2020/12/17 07:22:20;;;;;;;1999.90;999.90;;;9.60;99.90;;;;;;4959985;28;20175;-83
2020/12/17 07:24:53;;;;;;;1999.90;999.90;;;9.60;99.90;;;;;;4960475;28;20579;-84
2020/12/17 07:27:25;;;;;;;1999.90;999.90;;;9.60;99.90;;;;;;4979247;28;20638;-83
2020/12/17 07:29:51;;;;;;;1999.90;999.90;;;9.60;99.90;;;;;;4979702;28;20508;-83
2020/12/17 07:32:32;;;;;;;1999.90;999.90;;;9.60;99.90;;;;;;4961238;28;20186;-83
2020/12/17 07:35:09;;;;;;;1999.90;999.90;;;9.50;99.90;;;;;;4978050;28;20201;-82
2020/12/17 07:37:57;;;;;;;1999.90;999.90;;;9.60;99.90;;;;;;4960974;28;20175;-83
2020/12/17 07:40:41;;;;;;;1999.90;999.90;;;9.60;99.90;;;;;;4977455;28;20167;-83
2020/12/17 07:43:34;;;;;;;1999.90;999.90;;;9.60;99.90;;;;;;4959345;28;20598;-83
2020/12/17 07:46:54;;;;;;;1999.90;999.90;;;9.60;99.90;;;;;;4976014;28;20199;-82
2020/12/17 07:49:24;;;;;;;1999.90;999.90;;;9.70;99.90;;;;;;4963648;28;20163;-83
2020/12/17 07:51:50;;;;;;;1999.90;999.90;;;9.70;99.90;;;;;;4959533;28;20167;-83
2020/12/17 07:54:21;;;;;;;1999.90;999.90;;;9.70;99.90;;;;;;4976563;28;20229;-82
2020/12/17 07:57:00;;;;;;;1999.90;999.90;;;9.70;99.90;;;;;;4977706;28;20159;-83
2020/12/17 07:59:26;;;;;;;1999.90;999.90;;;9.70;99.90;;;;;;4962198;28;20155;-82
2020/12/17 08:02:03;;;;;;;1999.90;999.90;;;9.70;99.90;;;;;;4977962;28;20163;-82
2020/12/17 08:04:29;;;;;;;1999.90;999.90;;;9.70;99.90;;;;;;4958501;28;20160;-82
2020/12/17 08:06:54;;;;;;;1999.90;999.90;;;9.60;99.90;;;;;;4975060;28;20206;-82
2020/12/17 08:09:23;;;;;;;1999.90;999.90;;;9.60;99.90;;;;;;4974026;28;20531;-82
2020/12/17 08:11:56;;;;;;;1999.90;999.90;;;9.60;99.90;;;;;;4975133;28;20197;-82
2020/12/17 08:14:32;;;;;;;1999.90;999.90;;;9.60;99.90;;;;;;4975150;28;20191;-82
2020/12/17 08:17:07;;;;;;;1999.90;999.90;;;9.60;99.90;;;;;;4975827;28;20202;-82
2020/12/17 08:19:33;;;;;;;1999.90;999.90;;;9.60;99.90;;;;;;4975185;28;20167;-82
2020/12/17 08:22:00;;;;;;;1999.90;999.90;;;9.60;99.90;;;;;;4958987;28;20199;-82
2020/12/17 08:24:28;;;;;;;1999.90;999.90;;;9.60;99.90;;;;;;4962377;28;20182;-82
2020/12/17 08:26:54;;;;;;;1999.90;999.90;;;9.60;99.90;;;;;;4979359;28;20171;-83
2020/12/17 08:29:22;;;;;;;1999.90;999.90;;;9.60;99.90;;;;;;4978660;28;20250;-82
2020/12/17 08:31:48;;;;;;;1999.90;999.90;;;9.50;99.90;;;;;;4961476;28;20171;-82
2020/12/17 08:34:14;;;;;;;1999.90;999.90;;;9.50;99.90;;;;;;4978591;28;20543;-82
2020/12/17 08:36:40;;;;;;;1999.90;999.90;;;9.50;99.90;;;;;;4961065;28;20399;-82
2020/12/17 08:39:13;;;;;;;1999.90;999.90;;;9.50;99.90;;;;;;4978770;28;20409;-83
2020/12/17 08:41:50;;;;;;;1999.90;999.90;;;9.50;99.90;;;;;;4978747;28;20232;-82
2020/12/17 08:44:30;;;;;;;1999.90;999.90;;;9.50;99.90;;;;;;4978636;28;20151;-82
2020/12/17 08:47:08;;;;;;;1999.90;999.90;;;9.50;99.90;;;;;;4978596;28;20183;-83
2020/12/17 08:53:35;;;;;;;1999.90;999.90;;;9.50;99.90;;;;;;4888703;29;20227;-82
2020/12/17 08:59:09;;;;;;;1999.90;999.90;;;9.50;99.90;;;;;;4977576;28;20176;-84
2020/12/17 09:01:48;;;;;;;1999.90;999.90;;;9.40;99.90;;;;;;4984828;28;20167;-84
2020/12/17 09:04:13;;;;;;;1999.90;999.90;;;9.50;99.90;;;;;;4984135;28;20210;-84
2020/12/17 09:06:39;;;;;;;1999.90;999.90;;;9.50;99.90;;;;;;4983063;28;20234;-84
2020/12/17 09:09:27;;;;;;;1999.90;999.90;;;9.50;99.90;;;;;;4985464;28;20527;-84
2020/12/17 09:12:02;;;;;;;1999.90;999.90;;;9.50;99.90;;;;;;4986429;28;20151;-84
2020/12/17 09:14:30;;;;;;;1999.90;999.90;;;9.50;99.90;;;;;;4984963;28;20322;-84
2020/12/17 09:17:18;;;;;;;1999.90;999.90;;;9.50;99.90;;;;;;4964543;28;20171;-84
2020/12/17 09:20:29;;;;;;;1999.90;999.90;;;9.60;99.90;;;;;;4965063;28;20155;-83
2020/12/17 09:23:11;;;;;;;1999.90;999.90;;;9.70;99.90;;;;;;4962967;28;20159;-83
2020/12/17 09:25:52;;;;;;;1999.90;999.90;;;9.70;99.90;;;;;;4962876;28;20248;-83
2020/12/17 09:28:30;;;;;;;1999.90;999.90;;;9.70;99.90;;;;;;4983950;28;20218;-84
2020/12/17 09:30:56;;;;;;;1999.90;999.90;;;9.80;99.90;;;;;;4984819;28;20230;-85
2020/12/17 09:33:24;;;;;;;1999.90;999.90;;;9.80;99.90;;;;;;4985004;28;20171;-84
2020/12/17 09:35:50;;;;;;;1999.90;999.90;;;9.90;99.90;;;;;;4984044;28;20207;-85
2020/12/17 09:38:19;;;;;;;1999.90;999.90;;;9.90;99.90;;;;;;4984516;28;20198;-84
2020/12/17 09:40:51;;;;;;;1999.90;999.90;;;9.90;99.90;;;;;;4982999;28;20242;-84
2020/12/17 09:43:17;;;;;;;1999.90;999.90;;;10.00;99.90;;;;;;4983914;28;20158;-84
2020/12/17 09:45:44;;;;;;;1999.90;999.90;;;10.10;99.90;;;;;;4967759;28;20558;-84
2020/12/17 09:48:15;;;;;;;1999.90;999.90;;;10.10;99.90;;;;;;4978850;28;20172;-83
2020/12/17 09:51:03;;;;;;;1999.90;999.90;;;10.10;99.90;;;;;;4961701;28;20599;-83
2020/12/17 09:53:36;;;;;;;1999.90;999.90;;;10.20;99.90;;;;;;4979871;28;20152;-84
2020/12/17 09:56:02;;;;;;;1999.90;999.90;;;10.30;99.90;;;;;;4984519;28;20198;-84
2020/12/17 09:58:27;;;;;;;1999.90;999.90;;;10.40;99.90;;;;;;4967937;28;20164;-84
2020/12/17 10:00:53;;;;;;;1999.90;999.90;;;10.40;99.90;;;;;;4983886;28;20175;-84
2020/12/17 10:03:19;;;;;;;1999.90;999.90;;;10.60;99.90;;;;;;4984587;28;20175;-85
2020/12/17 10:05:45;;;;;;;1999.90;999.90;;;10.70;99.90;;;;;;4967215;28;20639;-84
2020/12/17 10:08:27;;;;;;;1999.90;999.90;;;10.60;99.90;;;;;;4986779;28;20294;-85
2020/12/17 10:18:15;;;;;;;1999.90;999.90;;;11.00;99.90;;;;;;4866613;29;20182;-84
2020/12/17 10:20:50;;;;;;;1999.90;999.90;;;11.00;99.90;;;;;;4924427;28;20670;-84
2020/12/17 10:23:33;;;;;;;1999.90;999.90;;;11.00;99.90;;;;;;4966765;28;20170;-83
2020/12/17 10:25:59;;;;;;;1999.90;999.90;;;11.00;99.90;;;;;;4985108;28;20564;-84
2020/12/17 10:28:25;;;;;;;1999.90;999.90;;;10.80;99.90;;;;;;4984240;28;20163;-84
2020/12/17 10:30:59;;;;;;;1999.90;999.90;;;10.90;99.90;;;;;;4984771;28;20218;-83
2020/12/17 10:33:34;;;;;;;1999.90;999.90;;;10.90;99.90;;;;;;4981613;28;20170;-84
2020/12/17 10:36:12;;;;;;;1999.90;999.90;;;11.10;99.90;;;;;;4983306;28;20266;-84
2020/12/17 10:38:38;;;;;;;1999.90;999.90;;;11.20;99.90;;;;;;4982359;28;20627;-84
2020/12/17 10:41:16;;;;;;;1999.90;999.90;;;11.30;99.90;;;;;;4980529;28;20209;-83
2020/12/17 10:51:16;;;;;;;1999.90;999.90;;;11.10;99.90;;;;;;4910689;28;20292;-84
2020/12/17 10:54:02;;;;;;;1999.90;999.90;;;11.20;99.90;;;;;;4983607;28;20169;-84
2020/12/17 10:56:44;;;;;;;1999.90;999.90;;;11.20;99.90;;;;;;4984582;28;20171;-83
2020/12/17 10:59:10;;;;;;;1999.90;999.90;;;11.20;99.90;;;;;;4964315;28;20170;-84
2020/12/17 11:01:41;;;;;;;1999.90;999.90;;;11.10;99.90;;;;;;4981550;28;20163;-83
2020/12/17 11:07:46;;;;;;;1999.90;999.90;;;11.30;99.90;;;;;;4935886;28;20182;-83
2020/12/17 11:10:24;;;;;;;1999.90;999.90;;;11.40;99.90;;;;;;4978098;28;20225;-83
2020/12/17 11:12:50;;;;;;;1999.90;999.90;;;11.40;99.90;;;;;;4978376;28;20166;-82
2020/12/17 11:15:21;;;;;;;1999.90;999.90;;;11.30;99.90;;;;;;4977902;28;20195;-83
2020/12/17 11:17:47;;;;;;;1999.90;999.90;;;11.40;99.90;;;;;;4978243;28;20144;-84
2020/12/17 11:20:22;;;;;;;1999.90;999.90;;;11.40;99.90;;;;;;4977618;28;20159;-83
2020/12/17 11:22:57;;;;;;;1999.90;999.90;;;11.50;99.90;;;;;;4961215;28;20155;-84
2020/12/17 11:25:23;;;;;;;1999.90;999.90;;;11.50;99.90;;;;;;4977942;28;20166;-83
2020/12/17 11:27:50;;;;;;;1999.90;999.90;;;11.40;99.90;;;;;;4977031;28;20641;-82
2020/12/17 11:30:25;;;;;;;1999.90;999.90;;;11.40;99.90;;;;;;4977469;28;20199;-83
2020/12/17 11:33:01;;;;;;;1999.90;999.90;;;11.40;99.90;;;;;;4978273;28;20163;-83
2020/12/17 11:35:27;;;;;;;1999.90;999.90;;;11.30;99.90;;;;;;4977591;28;20198;-83
2020/12/17 11:37:53;;;;;;;1999.90;999.90;;;11.30;99.90;;;;;;4976526;28;20167;-82
2020/12/17 11:40:24;;;;;;;1999.90;999.90;;;11.40;99.90;;;;;;4977597;28;20159;-82
2020/12/17 11:42:51;;;;;;;1999.90;999.90;;;11.40;99.90;;;;;;4977723;28;20156;-82
2020/12/17 11:45:17;;;;;;;1999.90;999.90;;;11.50;99.90;;;;;;4977344;28;20167;-84
2020/12/17 11:47:44;;;;;;;1999.90;999.90;;;11.50;99.90;;;;;;4978426;28;20178;-83
2020/12/17 11:50:10;;;;;;;1999.90;999.90;;;11.50;99.90;;;;;;4976286;28;20175;-83
2020/12/17 11:52:37;;;;;;;1999.90;999.90;;;11.60;99.90;;;;;;4977454;28;20250;-83
2020/12/17 11:55:08;;;;;;;1999.90;999.90;;;11.60;99.90;;;;;;4978371;28;20273;-83
2020/12/17 11:57:40;;;;;;;1999.90;999.90;;;11.50;99.90;;;;;;4976781;28;20694;-83
2020/12/17 12:00:07;;;;;;;1999.90;999.90;;;11.50;99.90;;;;;;4976944;28;20174;-83
2020/12/17 12:02:34;;;;;;;1999.90;999.90;;;11.50;99.90;;;;;;4976367;28;20170;-83
2020/12/17 12:05:00;;;;;;;1999.90;999.90;;;11.50;99.90;;;;;;4977231;28;20167;-82
2020/12/17 12:07:27;;;;;;;1999.90;999.90;;;11.50;99.90;;;;;;4960022;28;20178;-82
2020/12/17 12:09:53;;;;;;;1999.90;999.90;;;11.50;99.90;;;;;;4959143;28;20173;-82
2020/12/17 12:12:19;;;;;;;1999.90;999.90;;;11.50;99.90;;;;;;4976686;28;20168;-82
2020/12/17 12:14:48;;;;;;;1999.90;999.90;;;11.50;99.90;;;;;;4976974;28;20187;-83
2020/12/17 12:17:17;;;;;;;1999.90;999.90;;;11.50;99.90;;;;;;4977128;28;20643;-82
2020/12/17 12:19:43;;;;;;;1999.90;999.90;;;11.40;99.90;;;;;;4976415;28;20186;-83
2020/12/17 12:22:12;;;;;;;1999.90;999.90;;;11.50;99.90;;;;;;4976269;28;20646;-83
2020/12/17 12:24:38;;;;;;;1999.90;999.90;;;11.50;99.90;;;;;;4976439;28;20205;-82
2020/12/17 12:27:07;;;;;;;1999.90;999.90;;;11.50;99.90;;;;;;4977723;28;20202;-83
2020/12/17 12:29:33;;;;;;;1999.90;999.90;;;11.50;99.90;;;;;;4977979;28;20171;-84
2020/12/17 12:31:59;;;;;;;1999.90;999.90;;;11.50;99.90;;;;;;4979150;28;20174;-84
2020/12/17 12:34:29;;;;;;;1999.90;999.90;;;11.50;99.90;;;;;;4976190;28;20578;-83
2020/12/17 12:36:56;;;;;;;1999.90;999.90;;;11.50;99.90;;;;;;4974866;28;20469;-83
2020/12/17 12:39:22;;;;;;;1999.90;999.90;;;11.50;99.90;;;;;;4958861;28;20167;-83
2020/12/17 12:41:49;;;;;;;1999.90;999.90;;;11.50;99.90;;;;;;4978311;28;20186;-83
2020/12/17 12:44:15;;;;;;;1999.90;999.90;;;11.50;99.90;;;;;;4977973;28;20167;-83
2020/12/17 12:46:41;;;;;;;1999.90;999.90;;;11.60;99.90;;;;;;4978509;28;20167;-83
2020/12/17 12:49:07;;;;;;;1999.90;999.90;;;11.60;99.90;;;;;;4961319;28;20446;-83
2020/12/17 12:51:34;;;;;;;1999.90;999.90;;;11.60;99.90;;;;;;4977717;28;20174;-83
2020/12/17 12:54:05;;;;;;;1999.90;999.90;;;11.60;99.90;;;;;;4961246;28;20181;-83
2020/12/17 12:56:31;;;;;;;1999.90;999.90;;;11.50;99.90;;;;;;4977835;28;20152;-83
2020/12/17 12:58:57;;;;;;;1999.90;999.90;;;11.50;99.90;;;;;;4978621;28;20187;-83